Time;durP1;ratioP1;P1;durP2;ratioP2;P2;SDS_P1;SDS_P2;PMS_P1;PMS_P2;Temp;Humidity;BMP_temperature;BMP_pressure;BME280_temperature;BME280_humidity;BME280_pressure;Samples;Min_cycle;Max_cycle;Signal;HPM_P1;HPM_P2
2022/07/18 00:01:31;;;;;;;3.15;0.50;;;11.80;99.90;;;;;;4980284;28;20437;-82
2022/07/18 00:03:59;;;;;;;3.40;0.50;;;11.90;99.90;;;;;;4972571;28;20405;-82
2022/07/18 00:06:27;;;;;;;3.25;0.50;;;11.90;99.90;;;;;;4972662;28;20395;-83
2022/07/18 00:08:55;;;;;;;4.20;0.60;;;11.80;99.90;;;;;;4972567;28;20520;-82
2022/07/18 00:11:22;;;;;;;2.40;0.50;;;11.80;99.90;;;;;;4971214;28;20416;-81
2022/07/18 00:13:51;;;;;;;5.88;0.60;;;11.70;99.90;;;;;;4987337;28;20449;-81
2022/07/18 00:16:18;;;;;;;3.97;0.88;;;11.70;99.90;;;;;;4971274;28;20432;-81
2022/07/18 00:18:46;;;;;;;5.20;0.85;;;11.70;99.90;;;;;;4971121;28;20406;-82
2022/07/18 00:21:14;;;;;;;2.90;0.50;;;11.70;99.90;;;;;;4973792;28;20408;-81
2022/07/18 00:23:42;;;;;;;4.55;0.60;;;11.70;99.90;;;;;;5006791;28;20479;-81
2022/07/18 00:26:09;;;;;;;2.63;0.63;;;11.60;99.90;;;;;;4991795;28;20397;-81
2022/07/18 00:28:37;;;;;;;2.53;0.60;;;11.60;99.90;;;;;;4991806;28;20396;-82
2022/07/18 00:31:05;;;;;;;0.68;0.47;;;11.60;99.90;;;;;;5022895;28;20928;-83
2022/07/18 00:33:36;;;;;;;4.77;0.80;;;11.60;99.90;;;;;;5010792;28;20474;-83
2022/07/18 00:36:18;;;;;;;4.07;0.73;;;11.60;99.90;;;;;;5005677;28;20494;-81
2022/07/18 00:38:46;;;;;;;5.97;0.55;;;11.50;99.90;;;;;;5009180;28;20887;-81
2022/07/18 00:41:17;;;;;;;3.63;0.60;;;11.60;99.90;;;;;;5008628;28;20446;-82
2022/07/18 00:43:44;;;;;;;2.85;0.60;;;11.60;99.90;;;;;;5006921;28;20393;-82
2022/07/18 00:46:12;;;;;;;5.10;0.60;;;11.60;99.90;;;;;;4990393;28;20400;-81
2022/07/18 00:48:41;;;;;;;5.87;0.60;;;11.60;99.90;;;;;;4990470;28;20399;-82
2022/07/18 00:51:10;;;;;;;3.70;0.60;;;11.50;99.90;;;;;;5006460;28;20456;-82
2022/07/18 00:53:37;;;;;;;2.40;0.60;;;11.50;99.90;;;;;;4991492;28;20475;-83
2022/07/18 00:56:05;;;;;;;2.85;0.50;;;11.40;99.90;;;;;;4991555;28;20397;-80
2022/07/18 00:58:33;;;;;;;2.65;0.50;;;11.40;99.90;;;;;;5006530;28;20397;-82
2022/07/18 01:03:47;;;;;;;3.25;0.55;;;11.30;99.90;;;;;;4991453;28;20926;-83
2022/07/18 01:06:15;;;;;;;3.83;0.68;;;11.30;99.90;;;;;;4994641;28;20393;-82
2022/07/18 01:08:43;;;;;;;3.03;0.80;;;11.30;99.90;;;;;;4994886;28;20389;-83
2022/07/18 01:11:11;;;;;;;6.03;0.60;;;11.30;99.90;;;;;;4977217;28;20389;-83
2022/07/18 01:13:39;;;;;;;4.03;0.60;;;11.20;99.90;;;;;;4994747;28;20943;-82
2022/07/18 01:16:07;;;;;;;2.90;0.60;;;11.20;99.90;;;;;;4993637;28;20389;-81
2022/07/18 01:18:35;;;;;;;2.60;0.40;;;11.30;99.90;;;;;;4994835;28;20879;-83
2022/07/18 01:21:02;;;;;;;2.60;0.70;;;11.30;99.90;;;;;;5009634;28;20481;-82
2022/07/18 01:23:30;;;;;;;4.10;0.65;;;11.30;99.90;;;;;;4994744;28;20393;-82
2022/07/18 01:25:58;;;;;;;2.73;0.70;;;11.20;99.90;;;;;;5009606;28;20393;-82
2022/07/18 01:28:26;;;;;;;3.60;0.50;;;11.20;99.90;;;;;;4994635;28;20393;-82
2022/07/18 01:30:54;;;;;;;3.15;0.63;;;11.30;99.90;;;;;;4994500;28;20476;-82
2022/07/18 01:33:21;;;;;;;4.40;0.60;;;11.30;99.90;;;;;;4994511;28;20503;-82
2022/07/18 01:35:49;;;;;;;3.27;0.70;;;11.30;99.90;;;;;;4977210;28;20404;-82
2022/07/18 01:38:18;;;;;;;3.78;0.73;;;11.30;99.90;;;;;;5009473;28;20398;-82
2022/07/18 01:40:46;;;;;;;2.97;0.60;;;11.30;99.90;;;;;;4994169;28;20434;-82
2022/07/18 01:43:19;;;;;;;3.92;0.70;;;11.20;99.90;;;;;;4994346;28;20941;-82
2022/07/18 01:45:47;;;;;;;2.20;0.68;;;11.20;99.90;;;;;;4994239;28;20393;-83
2022/07/18 01:48:15;;;;;;;2.33;0.68;;;11.20;99.90;;;;;;5009240;28;20770;-83
2022/07/18 01:50:43;;;;;;;4.22;0.70;;;11.20;99.90;;;;;;4992996;28;20404;-83
2022/07/18 01:53:11;;;;;;;3.20;0.70;;;11.20;99.90;;;;;;4976935;28;20400;-82
2022/07/18 01:55:38;;;;;;;4.63;0.70;;;11.20;99.90;;;;;;4994108;28;20385;-82
2022/07/18 01:58:06;;;;;;;2.35;0.70;;;11.20;99.90;;;;;;5002954;28;20411;-82
2022/07/18 02:00:35;;;;;;;1.83;0.60;;;11.20;99.90;;;;;;5013488;28;20904;-82
2022/07/18 02:03:02;;;;;;;2.33;0.70;;;11.30;99.90;;;;;;4996273;28;20402;-82
2022/07/18 02:05:30;;;;;;;1.73;0.60;;;11.20;99.90;;;;;;5013481;28;20395;-82
2022/07/18 02:07:58;;;;;;;4.43;0.70;;;11.20;99.90;;;;;;5013393;28;20425;-82
2022/07/18 02:10:26;;;;;;;1.73;0.88;;;11.20;99.90;;;;;;5013367;28;20399;-82
2022/07/18 02:12:54;;;;;;;1.55;0.80;;;11.30;99.90;;;;;;5013250;28;21018;-81
2022/07/18 02:15:21;;;;;;;1.00;0.73;;;11.30;99.90;;;;;;5011837;28;20399;-82
2022/07/18 02:17:51;;;;;;;2.13;0.90;;;11.30;99.90;;;;;;5012433;28;20383;-82
2022/07/18 02:20:18;;;;;;;2.97;0.88;;;11.30;99.90;;;;;;4995927;28;20490;-82
2022/07/18 02:22:46;;;;;;;3.50;0.80;;;11.30;99.90;;;;;;5012946;28;20410;-82
2022/07/18 02:25:14;;;;;;;3.80;0.80;;;11.30;99.90;;;;;;5028213;28;20873;-82
2022/07/18 02:27:42;;;;;;;4.55;0.70;;;11.30;99.90;;;;;;5013004;28;20391;-82
2022/07/18 02:30:10;;;;;;;3.15;0.95;;;11.30;99.90;;;;;;5012992;28;20565;-82
2022/07/18 02:32:38;;;;;;;3.75;0.90;;;11.30;99.90;;;;;;5028079;28;20759;-82
2022/07/18 02:35:07;;;;;;;6.13;1.00;;;11.30;99.90;;;;;;4995296;28;20936;-82
2022/07/18 02:37:37;;;;;;;3.10;0.90;;;11.30;99.90;;;;;;5012879;28;20815;-82
2022/07/18 02:40:11;;;;;;;1.85;0.77;;;11.20;99.90;;;;;;5012920;28;20387;-82
2022/07/18 02:42:38;;;;;;;3.00;1.00;;;11.20;99.90;;;;;;4995394;28;20956;-82
2022/07/18 02:45:07;;;;;;;2.47;0.80;;;11.30;99.90;;;;;;5013010;28;20399;-82
2022/07/18 02:47:35;;;;;;;2.28;0.90;;;11.30;99.90;;;;;;5012799;28;20395;-83
2022/07/18 02:50:03;;;;;;;3.03;0.90;;;11.30;99.90;;;;;;5027884;28;20481;-82
2022/07/18 02:52:30;;;;;;;1.38;0.73;;;11.40;99.90;;;;;;4994956;28;20407;-82
2022/07/18 02:55:00;;;;;;;1.80;0.90;;;11.40;99.90;;;;;;5011073;28;20394;-82
2022/07/18 02:57:29;;;;;;;2.05;1.25;;;11.40;99.90;;;;;;5011106;28;20469;-83
2022/07/18 02:59:56;;;;;;;3.30;0.80;;;11.30;99.90;;;;;;5027691;28;20397;-82
2022/07/18 03:02:24;;;;;;;1.90;0.70;;;11.40;99.90;;;;;;5010795;28;20404;-83
2022/07/18 03:04:51;;;;;;;3.83;0.88;;;11.40;99.90;;;;;;4994928;28;20954;-83
2022/07/18 03:07:19;;;;;;;3.00;1.00;;;11.40;99.90;;;;;;4994665;28;20893;-82
2022/07/18 03:09:46;;;;;;;3.58;0.88;;;11.40;99.90;;;;;;4994719;28;20403;-83
2022/07/18 03:12:14;;;;;;;3.97;0.90;;;11.50;99.90;;;;;;4978670;28;20769;-83
2022/07/18 03:14:42;;;;;;;1.73;0.90;;;11.50;99.90;;;;;;4994878;28;20380;-83
2022/07/18 03:17:10;;;;;;;4.10;1.20;;;11.50;99.90;;;;;;5012235;28;20402;-82
2022/07/18 03:19:37;;;;;;;2.15;0.90;;;11.50;99.90;;;;;;5012161;28;20395;-83
2022/07/18 03:22:05;;;;;;;4.03;1.00;;;11.60;99.90;;;;;;4994660;28;20403;-83
2022/07/18 03:24:33;;;;;;;2.78;1.10;;;11.60;99.90;;;;;;4992240;28;20415;-83
2022/07/18 03:27:01;;;;;;;1.13;0.80;;;11.60;99.90;;;;;;5003336;28;20398;-82
2022/07/18 03:29:29;;;;;;;2.08;0.90;;;11.70;99.90;;;;;;5005663;28;20915;-82
2022/07/18 03:31:56;;;;;;;2.30;1.10;;;11.70;99.90;;;;;;5014472;28;20433;-83
2022/07/18 03:34:24;;;;;;;2.70;0.90;;;11.70;99.90;;;;;;4992343;28;20384;-82
2022/07/18 03:36:52;;;;;;;1.73;0.90;;;11.70;99.90;;;;;;4992232;28;20448;-83
2022/07/18 03:39:19;;;;;;;2.85;1.10;;;11.70;99.90;;;;;;4992311;28;20389;-82
2022/07/18 03:41:47;;;;;;;2.45;1.00;;;11.70;99.90;;;;;;4992247;28;20907;-82
2022/07/18 03:44:15;;;;;;;3.15;1.00;;;11.80;99.90;;;;;;4992303;28;20451;-82
2022/07/18 03:46:43;;;;;;;2.08;1.00;;;11.70;99.90;;;;;;5004527;28;20391;-82
2022/07/18 03:49:10;;;;;;;2.53;1.13;;;11.80;99.90;;;;;;4994179;28;20390;-82
2022/07/18 03:51:38;;;;;;;3.38;1.30;;;11.80;99.90;;;;;;5011668;28;20403;-82
2022/07/18 03:54:09;;;;;;;3.72;1.00;;;11.80;99.90;;;;;;5011489;28;20413;-82
2022/07/18 03:56:38;;;;;;;4.13;1.30;;;11.80;99.90;;;;;;4993979;28;20420;-82
2022/07/18 03:59:06;;;;;;;2.87;1.50;;;11.90;99.90;;;;;;5011643;28;20392;-82
2022/07/18 04:01:34;;;;;;;5.32;1.65;;;11.90;99.90;;;;;;5005964;28;20449;-82
2022/07/18 04:04:01;;;;;;;6.07;2.45;;;11.90;99.90;;;;;;5004976;28;20457;-82
2022/07/18 04:06:30;;;;;;;5.55;2.67;;;11.90;99.90;;;;;;5010641;28;20431;-82
2022/07/18 04:08:58;;;;;;;9.50;3.20;;;11.80;99.90;;;;;;5011449;28;20927;-82
2022/07/18 04:11:26;;;;;;;6.57;3.60;;;11.90;99.90;;;;;;4994177;28;20833;-82
2022/07/18 04:13:54;;;;;;;9.25;4.10;;;11.90;99.90;;;;;;5011275;28;20405;-82
2022/07/18 04:16:23;;;;;;;8.63;4.10;;;11.80;99.90;;;;;;4994089;28;20379;-83
2022/07/18 04:18:51;;;;;;;9.00;4.18;;;11.90;99.90;;;;;;4994068;28;20491;-82
2022/07/18 04:21:18;;;;;;;9.52;4.20;;;12.00;99.90;;;;;;4990330;28;21046;-82
2022/07/18 04:23:46;;;;;;;11.80;4.40;;;12.00;99.90;;;;;;4991790;28;20396;-82
2022/07/18 04:26:14;;;;;;;12.65;5.20;;;12.10;99.90;;;;;;4991802;28;20396;-82
2022/07/18 04:28:41;;;;;;;8.27;4.63;;;12.10;99.90;;;;;;4990570;28;20416;-82
2022/07/18 04:31:09;;;;;;;12.98;5.03;;;12.00;99.90;;;;;;4991758;28;20807;-82
2022/07/18 04:33:37;;;;;;;12.48;5.50;;;12.10;99.90;;;;;;4991669;28;20405;-83
2022/07/18 04:36:06;;;;;;;13.65;6.10;;;12.00;99.90;;;;;;4991799;28;20430;-82
2022/07/18 04:38:37;;;;;;;12.10;5.70;;;12.00;99.90;;;;;;4991807;28;20412;-82
2022/07/18 04:41:05;;;;;;;11.63;5.40;;;12.00;99.90;;;;;;4993651;28;20400;-82
2022/07/18 04:43:33;;;;;;;12.88;5.97;;;12.10;99.90;;;;;;4995442;28;20389;-83
2022/07/18 04:46:01;;;;;;;14.77;6.67;;;12.10;99.90;;;;;;4995420;28;20886;-82
2022/07/18 04:48:29;;;;;;;13.40;6.85;;;12.10;99.90;;;;;;4994048;28;20416;-82
2022/07/18 04:50:57;;;;;;;12.30;6.50;;;12.10;99.90;;;;;;5010369;28;20403;-83
2022/07/18 04:53:24;;;;;;;13.85;7.32;;;12.10;99.90;;;;;;4995184;28;20404;-83
2022/07/18 04:55:52;;;;;;;15.20;7.80;;;12.10;99.90;;;;;;4995199;28;20388;-83
2022/07/18 04:58:19;;;;;;;14.10;7.47;;;12.10;99.90;;;;;;4995155;28;20419;-82
2022/07/18 05:00:48;;;;;;;18.85;8.20;;;12.10;99.90;;;;;;4995034;28;20396;-81
2022/07/18 05:03:15;;;;;;;15.30;7.72;;;12.20;99.90;;;;;;4993805;28;20399;-82
2022/07/18 05:05:43;;;;;;;14.32;7.55;;;12.20;99.90;;;;;;4995050;28;20396;-82
2022/07/18 05:08:12;;;;;;;15.60;7.28;;;12.10;99.90;;;;;;4988613;28;20488;-82
2022/07/18 05:10:40;;;;;;;14.18;7.72;;;12.10;99.90;;;;;;4995972;28;20947;-82
2022/07/18 05:13:08;;;;;;;13.02;6.97;;;12.10;99.90;;;;;;5007784;28;20409;-82
2022/07/18 05:15:36;;;;;;;13.93;7.30;;;12.10;99.90;;;;;;4993518;28;20396;-82
2022/07/18 05:18:04;;;;;;;12.95;7.25;;;12.10;99.90;;;;;;4994752;28;20397;-81
2022/07/18 05:20:31;;;;;;;13.10;7.15;;;12.20;99.90;;;;;;4988349;28;20763;-82
2022/07/18 05:22:59;;;;;;;17.42;7.55;;;12.20;99.90;;;;;;5004239;28;20411;-83
2022/07/18 05:25:27;;;;;;;14.43;7.55;;;12.30;99.90;;;;;;4993351;28;20439;-82
2022/07/18 05:27:55;;;;;;;16.83;8.30;;;12.20;99.90;;;;;;4991596;28;20419;-82
2022/07/18 05:30:24;;;;;;;14.70;6.88;;;12.20;99.90;;;;;;4989088;28;20408;-81
2022/07/18 05:32:52;;;;;;;13.82;6.93;;;12.30;99.90;;;;;;4993049;28;20839;-82
2022/07/18 05:35:19;;;;;;;15.17;7.80;;;12.30;99.90;;;;;;4994392;28;20899;-82
2022/07/18 05:37:47;;;;;;;13.88;7.03;;;12.30;99.90;;;;;;4994347;28;20416;-82
2022/07/18 05:40:15;;;;;;;13.55;6.78;;;12.40;99.90;;;;;;4994611;28;20867;-82
2022/07/18 05:42:43;;;;;;;14.27;7.50;;;12.40;99.90;;;;;;4994319;28;20388;-81
2022/07/18 05:45:25;;;;;;;14.05;7.07;;;12.30;99.90;;;;;;4994293;28;20424;-82
2022/07/18 05:47:53;;;;;;;16.85;7.25;;;12.30;99.90;;;;;;4994468;28;20749;-82
2022/07/18 05:50:23;;;;;;;14.43;7.33;;;12.40;99.90;;;;;;4992913;28;20397;-82
2022/07/18 05:52:50;;;;;;;10.77;6.47;;;12.40;99.90;;;;;;5009038;28;20417;-82
2022/07/18 05:55:18;;;;;;;12.80;7.07;;;12.30;99.90;;;;;;4994110;28;20389;-82
2022/07/18 05:57:46;;;;;;;12.20;6.97;;;12.40;99.90;;;;;;4994085;28;20385;-82
2022/07/18 06:00:15;;;;;;;10.45;6.20;;;12.40;99.90;;;;;;4993997;28;20859;-82
2022/07/18 06:02:42;;;;;;;12.10;7.60;;;12.40;99.90;;;;;;5025490;28;20876;-83
2022/07/18 06:05:10;;;;;;;9.63;5.97;;;12.40;99.90;;;;;;5025101;28;20910;-82
2022/07/18 06:07:50;;;;;;;10.93;6.80;;;12.40;99.90;;;;;;5008863;28;20432;-82
2022/07/18 06:10:18;;;;;;;10.57;6.30;;;12.40;99.90;;;;;;4993852;28;20396;-81
2022/07/18 06:12:46;;;;;;;12.90;6.93;;;12.40;99.90;;;;;;5008763;28;20428;-82
2022/07/18 06:15:15;;;;;;;12.85;6.68;;;12.40;99.90;;;;;;4992569;28;20467;-82
2022/07/18 06:17:43;;;;;;;11.18;7.35;;;12.40;99.90;;;;;;4993692;28;20439;-82
2022/07/18 06:20:11;;;;;;;13.67;6.90;;;12.40;99.90;;;;;;4992387;28;20400;-82
2022/07/18 06:22:39;;;;;;;11.80;7.27;;;12.50;99.90;;;;;;5008373;28;20405;-82
2022/07/18 06:25:07;;;;;;;12.45;7.65;;;12.50;99.90;;;;;;4990283;28;20404;-83
2022/07/18 06:27:35;;;;;;;9.30;6.20;;;12.50;99.90;;;;;;4986895;28;20391;-82
2022/07/18 06:30:05;;;;;;;13.75;7.32;;;12.60;99.90;;;;;;4974099;28;20896;-82
2022/07/18 06:32:33;;;;;;;12.32;6.55;;;12.70;99.90;;;;;;4973883;28;20397;-82
2022/07/18 06:35:01;;;;;;;14.82;7.78;;;12.70;99.90;;;;;;4973934;28;20394;-83
2022/07/18 06:37:28;;;;;;;15.63;8.30;;;12.70;99.90;;;;;;5005254;28;20399;-83
2022/07/18 06:39:56;;;;;;;15.05;8.32;;;12.60;99.90;;;;;;4978257;28;20763;-83
2022/07/18 06:42:29;;;;;;;14.93;8.32;;;12.70;99.90;;;;;;4991672;28;20405;-82
2022/07/18 06:44:58;;;;;;;14.87;8.20;;;12.70;99.90;;;;;;4991574;28;20393;-83
2022/07/18 06:47:26;;;;;;;15.20;8.55;;;12.70;99.90;;;;;;4993004;28;20415;-83
2022/07/18 06:49:53;;;;;;;15.80;8.73;;;12.80;99.90;;;;;;4991432;28;20405;-83
2022/07/18 06:52:21;;;;;;;16.87;8.47;;;12.80;99.90;;;;;;5007982;28;20397;-83
2022/07/18 06:54:49;;;;;;;15.63;7.25;;;12.80;99.90;;;;;;4991637;28;20405;-83
2022/07/18 06:57:20;;;;;;;15.80;8.73;;;12.80;99.90;;;;;;4992756;28;20419;-83
2022/07/18 06:59:47;;;;;;;15.77;8.10;;;12.90;99.90;;;;;;4990345;28;20934;-82
2022/07/18 07:02:24;;;;;;;11.95;7.28;;;12.90;99.90;;;;;;5002378;28;20500;-83
2022/07/18 07:04:52;;;;;;;13.43;7.55;;;12.90;99.90;;;;;;4992599;28;20393;-83
2022/07/18 07:07:20;;;;;;;13.23;7.60;;;12.90;99.90;;;;;;5007498;28;20400;-83
2022/07/18 07:09:47;;;;;;;12.00;6.72;;;13.00;99.90;;;;;;4979663;28;20403;-83
2022/07/18 07:12:15;;;;;;;12.50;6.57;;;12.90;99.90;;;;;;4986832;28;20462;-83
2022/07/18 07:14:42;;;;;;;11.77;6.40;;;13.00;99.90;;;;;;4999448;28;20421;-83
2022/07/18 07:17:10;;;;;;;11.65;5.90;;;13.00;99.90;;;;;;4987937;28;20402;-83
2022/07/18 07:19:38;;;;;;;12.55;6.57;;;13.00;99.90;;;;;;4981579;28;20393;-83
2022/07/18 07:22:05;;;;;;;9.98;5.40;;;13.00;99.90;;;;;;5001973;28;20514;-83
2022/07/18 07:24:33;;;;;;;12.88;6.18;;;13.00;99.90;;;;;;5012030;28;20395;-83
2022/07/18 07:27:01;;;;;;;11.35;5.75;;;13.00;99.90;;;;;;5011886;28;20394;-83
2022/07/18 07:29:29;;;;;;;11.65;5.95;;;13.00;99.90;;;;;;5011898;28;20484;-83
2022/07/18 07:31:56;;;;;;;11.68;6.00;;;13.10;99.90;;;;;;4994133;28;20399;-83
2022/07/18 07:34:24;;;;;;;12.98;5.55;;;13.00;99.90;;;;;;5011678;28;20406;-83
2022/07/18 07:36:51;;;;;;;9.10;6.05;;;13.00;99.90;;;;;;4994161;28;20608;-83
2022/07/18 07:39:19;;;;;;;13.63;5.83;;;13.00;99.90;;;;;;5011685;28;20394;-83
2022/07/18 07:41:46;;;;;;;10.82;5.57;;;13.10;99.90;;;;;;5010330;28;20750;-83
2022/07/18 07:44:18;;;;;;;10.60;5.53;;;13.00;99.90;;;;;;5010411;28;20399;-82
2022/07/18 07:46:45;;;;;;;9.55;5.57;;;13.00;99.90;;;;;;4993939;28;20925;-82
2022/07/18 07:49:13;;;;;;;8.35;5.40;;;13.00;99.90;;;;;;4993868;28;20434;-83
2022/07/18 07:51:40;;;;;;;10.60;4.78;;;13.10;99.90;;;;;;4993806;28;20781;-83
2022/07/18 07:54:09;;;;;;;10.52;5.50;;;13.10;99.90;;;;;;4993746;28;20897;-83
2022/07/18 07:56:36;;;;;;;10.20;4.65;;;13.20;99.90;;;;;;5011760;28;20384;-82
2022/07/18 07:59:04;;;;;;;8.98;5.47;;;13.20;99.90;;;;;;4993830;28;20422;-82
2022/07/18 08:01:32;;;;;;;9.07;5.27;;;13.10;99.90;;;;;;5011419;28;20388;-83
2022/07/18 08:04:01;;;;;;;10.27;5.40;;;13.20;99.90;;;;;;5011377;28;20399;-82
2022/07/18 08:06:29;;;;;;;8.98;5.30;;;13.20;99.90;;;;;;4993996;28;20398;-83
2022/07/18 08:08:57;;;;;;;7.05;5.07;;;13.20;99.90;;;;;;5010159;28;20968;-83
2022/07/18 08:11:25;;;;;;;8.52;4.97;;;13.20;99.90;;;;;;4994211;28;20398;-83
2022/07/18 08:13:54;;;;;;;7.80;4.50;;;13.30;99.90;;;;;;4972274;28;20433;-83
2022/07/18 08:16:22;;;;;;;6.93;3.88;;;13.30;99.90;;;;;;5015027;28;20387;-83
2022/07/18 08:18:50;;;;;;;6.93;4.05;;;13.40;99.90;;;;;;5015318;28;20389;-83
2022/07/18 08:21:17;;;;;;;8.50;4.35;;;13.30;99.90;;;;;;5029902;28;20854;-83
2022/07/18 08:23:47;;;;;;;6.90;4.40;;;13.40;99.90;;;;;;5013562;28;20482;-83
2022/07/18 08:26:15;;;;;;;6.15;3.83;;;13.40;99.90;;;;;;5013876;28;20391;-81
2022/07/18 08:28:45;;;;;;;5.78;3.08;;;13.50;99.90;;;;;;5013764;28;20449;-81
2022/07/18 08:31:18;;;;;;;4.18;3.38;;;13.50;99.90;;;;;;4975531;28;20828;-82
2022/07/18 08:33:54;;;;;;;7.00;3.67;;;13.60;99.90;;;;;;5012417;28;20414;-83
2022/07/18 08:36:22;;;;;;;6.45;4.15;;;13.60;99.90;;;;;;4979968;28;20486;-82
2022/07/18 08:38:50;;;;;;;5.03;3.90;;;13.60;99.90;;;;;;4995967;28;20402;-81
2022/07/18 08:41:18;;;;;;;5.45;3.70;;;13.70;99.90;;;;;;5013671;28;20387;-81
2022/07/18 08:43:46;;;;;;;7.55;5.20;;;13.70;99.90;;;;;;5013472;28;20398;-81
2022/07/18 08:46:18;;;;;;;9.15;5.50;;;13.70;99.90;;;;;;4996021;28;20398;-83
2022/07/18 08:48:46;;;;;;;8.05;5.25;;;13.70;99.90;;;;;;5013647;28;20920;-82
2022/07/18 08:51:14;;;;;;;7.90;5.50;;;13.70;99.90;;;;;;4996337;28;20391;-83
2022/07/18 08:53:42;;;;;;;8.63;4.90;;;13.70;99.90;;;;;;4995797;28;20410;-83
2022/07/18 08:56:09;;;;;;;10.35;5.10;;;13.80;99.90;;;;;;4995965;28;20529;-80
2022/07/18 08:58:37;;;;;;;7.22;3.80;;;13.90;99.90;;;;;;4995943;28;20893;-83
2022/07/18 09:01:13;;;;;;;7.18;3.78;;;14.00;99.90;;;;;;4997205;28;20391;-82
2022/07/18 09:03:41;;;;;;;8.38;3.67;;;14.00;99.90;;;;;;4995790;28;20478;-83
2022/07/18 09:06:13;;;;;;;7.80;3.88;;;14.00;99.90;;;;;;4995815;28;20765;-83
2022/07/18 09:09:01;;;;;;;5.80;3.53;;;14.00;99.90;;;;;;4995849;28;20395;-82
2022/07/18 09:11:29;;;;;;;6.43;3.40;;;14.10;99.90;;;;;;5013343;28;20506;-83
2022/07/18 09:14:43;;;;;;;5.70;3.47;;;14.10;99.90;;;;;;4998415;28;20405;-83
2022/07/18 09:17:16;;;;;;;5.50;3.25;;;14.00;99.90;;;;;;5013501;28;20387;-84
2022/07/18 09:19:56;;;;;;;7.75;3.78;;;14.00;99.90;;;;;;5013155;28;20454;-83
2022/07/18 09:23:39;;;;;;;7.35;3.83;;;14.00;99.90;;;;;;5088833;28;20878;-82
2022/07/18 09:26:10;;;;;;;6.35;3.22;;;14.00;99.90;;;;;;5088862;28;20382;-82
2022/07/18 09:28:49;;;;;;;5.50;2.40;;;14.00;99.90;;;;;;5088890;28;20472;-82
2022/07/18 09:31:37;;;;;;;4.60;2.42;;;14.10;99.90;;;;;;5088716;28;20385;-82
2022/07/18 09:34:06;;;;;;;6.75;2.90;;;14.10;99.90;;;;;;5088756;28;20377;-82
2022/07/18 09:36:36;;;;;;;6.47;2.53;;;14.10;99.90;;;;;;5088708;28;20385;-82
2022/07/18 09:39:20;;;;;;;6.53;2.63;;;14.10;99.90;;;;;;5089003;28;20385;-83
2022/07/18 09:41:48;;;;;;;6.78;2.83;;;14.10;99.90;;;;;;5087166;28;20817;-82
2022/07/18 09:44:17;;;;;;;5.95;2.50;;;14.10;99.90;;;;;;5088512;28;20463;-83
2022/07/18 09:47:04;;;;;;;8.60;3.05;;;14.20;99.90;;;;;;5085514;28;20480;-83
2022/07/18 09:49:34;;;;;;;7.20;2.75;;;14.20;99.90;;;;;;5077112;28;20389;-84
2022/07/18 09:52:10;;;;;;;6.88;2.70;;;14.20;99.90;;;;;;5068158;28;20470;-83
2022/07/18 09:54:41;;;;;;;6.80;2.85;;;14.20;99.90;;;;;;5068137;28;20792;-83
2022/07/18 09:57:22;;;;;;;7.25;2.83;;;14.20;99.90;;;;;;5100627;28;20398;-83
2022/07/18 09:59:50;;;;;;;5.15;2.60;;;14.20;99.90;;;;;;5067995;28;20387;-83
2022/07/18 10:02:18;;;;;;;6.15;2.53;;;14.20;99.90;;;;;;5067947;28;20810;-82
2022/07/18 10:04:46;;;;;;;6.05;2.75;;;14.20;99.90;;;;;;5066668;28;20433;-83
2022/07/18 10:07:15;;;;;;;6.83;2.93;;;14.20;99.90;;;;;;5066707;28;20471;-83
2022/07/18 10:09:44;;;;;;;5.45;2.70;;;14.20;99.90;;;;;;5077504;28;20402;-83
2022/07/18 10:12:15;;;;;;;6.32;2.88;;;14.20;99.90;;;;;;5086583;28;20393;-83
2022/07/18 10:14:45;;;;;;;6.37;2.63;;;14.20;99.90;;;;;;5078376;28;20763;-82
2022/07/18 10:17:17;;;;;;;5.43;2.42;;;14.30;99.90;;;;;;5081029;28;20876;-83
2022/07/18 10:19:45;;;;;;;6.70;2.87;;;14.30;99.90;;;;;;5079681;28;20791;-83
2022/07/18 10:22:13;;;;;;;5.97;2.40;;;14.30;99.90;;;;;;5090746;28;20426;-83
2022/07/18 10:24:44;;;;;;;5.00;2.40;;;14.40;99.90;;;;;;5088465;28;20459;-82
2022/07/18 10:27:18;;;;;;;4.87;2.50;;;14.40;99.90;;;;;;5107634;28;20395;-83
2022/07/18 10:30:12;;;;;;;6.40;2.40;;;14.40;99.90;;;;;;5089647;28;20434;-83
2022/07/18 10:32:41;;;;;;;3.92;2.17;;;14.50;99.90;;;;;;5101084;28;20396;-82
2022/07/18 10:35:16;;;;;;;6.70;2.17;;;14.50;99.90;;;;;;5092243;28;20395;-83
2022/07/18 10:37:44;;;;;;;6.17;1.97;;;14.50;99.90;;;;;;5094234;28;20380;-82
2022/07/18 10:40:29;;;;;;;5.03;1.80;;;14.50;99.90;;;;;;5074661;28;20900;-83
2022/07/18 10:43:32;;;;;;;4.05;2.15;;;14.60;99.90;;;;;;5090452;28;20489;-83
2022/07/18 10:46:02;;;;;;;6.80;2.38;;;14.70;99.90;;;;;;5108777;28;20415;-83
2022/07/18 10:48:47;;;;;;;8.80;4.35;;;14.70;99.90;;;;;;5075033;28;20419;-83
2022/07/18 10:51:17;;;;;;;7.37;3.70;;;14.60;99.90;;;;;;5075309;28;20407;-83
2022/07/18 10:53:54;;;;;;;7.72;4.25;;;14.70;99.90;;;;;;5093434;28;20380;-82
2022/07/18 10:56:28;;;;;;;10.73;4.70;;;14.70;99.90;;;;;;5092880;28;20387;-82
2022/07/18 10:58:58;;;;;;;11.07;4.63;;;14.80;99.90;;;;;;5093236;28;20392;-83
2022/07/18 11:01:27;;;;;;;11.32;5.30;;;14.90;99.90;;;;;;5093636;28;20430;-83
2022/07/18 11:04:35;;;;;;;7.93;3.55;;;15.00;99.90;;;;;;5074106;28;20393;-83
2022/07/18 11:07:13;;;;;;;9.00;2.83;;;15.00;99.90;;;;;;5093699;28;20403;-83
2022/07/18 11:09:47;;;;;;;10.43;2.92;;;15.10;99.90;;;;;;5077248;28;20752;-83
2022/07/18 11:12:30;;;;;;;8.90;3.17;;;15.10;99.90;;;;;;5094934;28;20395;-83
2022/07/18 11:15:00;;;;;;;9.07;2.70;;;15.10;99.90;;;;;;5075483;28;20442;-83
2022/07/18 11:18:03;;;;;;;6.93;2.63;;;15.10;99.90;;;;;;5093456;28;20385;-84
2022/07/18 11:20:38;;;;;;;5.70;2.60;;;15.20;99.90;;;;;;5074519;28;20744;-83
2022/07/18 11:23:16;;;;;;;9.27;2.88;;;15.20;99.90;;;;;;5093126;28;20436;-83
2022/07/18 11:25:45;;;;;;;6.50;2.47;;;15.30;99.90;;;;;;5091756;28;20887;-83
2022/07/18 11:28:29;;;;;;;4.87;2.70;;;15.30;99.90;;;;;;5075194;28;20479;-83
2022/07/18 11:31:02;;;;;;;6.15;2.05;;;15.30;99.90;;;;;;5093118;28;20381;-83
2022/07/18 11:33:32;;;;;;;6.78;2.50;;;15.30;99.90;;;;;;5081787;28;20792;-83
2022/07/18 11:36:08;;;;;;;9.07;2.30;;;15.30;99.90;;;;;;5075161;28;20410;-83
2022/07/18 11:38:38;;;;;;;5.85;1.80;;;15.40;99.90;;;;;;5093021;28;20385;-83
2022/07/18 11:41:06;;;;;;;8.50;2.05;;;15.40;99.90;;;;;;5075118;28;20388;-83
2022/07/18 11:43:34;;;;;;;6.33;1.93;;;15.40;99.90;;;;;;5074942;28;20403;-83
2022/07/18 11:46:09;;;;;;;6.37;2.00;;;15.50;99.90;;;;;;5091843;28;20471;-83
2022/07/18 11:48:46;;;;;;;5.53;1.92;;;15.50;99.90;;;;;;5074571;28;20385;-83
2022/07/18 11:51:16;;;;;;;7.63;2.65;;;15.50;99.90;;;;;;5093099;28;20735;-83
2022/07/18 11:53:49;;;;;;;4.53;1.87;;;15.60;99.90;;;;;;5092675;28;20418;-83
2022/07/18 11:56:21;;;;;;;6.55;1.92;;;15.60;99.90;;;;;;5074770;28;20393;-83
2022/07/18 11:58:51;;;;;;;7.20;1.83;;;15.60;99.90;;;;;;5058054;28;20384;-84
2022/07/18 12:01:22;;;;;;;6.00;1.60;;;15.60;99.90;;;;;;5070841;28;20864;-83
2022/07/18 12:03:52;;;;;;;6.07;1.77;;;15.70;99.90;;;;;;5072161;28;20404;-83
2022/07/18 12:06:22;;;;;;;4.70;1.50;;;15.80;99.90;;;;;;5088016;28;20385;-84
2022/07/18 12:08:56;;;;;;;4.63;1.60;;;15.80;99.90;;;;;;5072204;28;20393;-84
2022/07/18 12:11:30;;;;;;;3.20;1.63;;;15.80;99.90;;;;;;5072253;28;20481;-83
2022/07/18 12:14:12;;;;;;;3.92;1.50;;;15.80;99.90;;;;;;5088927;28;20422;-84
2022/07/18 12:16:56;;;;;;;6.07;1.35;;;15.90;99.90;;;;;;5083616;28;20398;-83
2022/07/18 12:19:33;;;;;;;4.43;1.38;;;15.90;99.90;;;;;;5077112;28;20408;-84
2022/07/18 12:22:04;;;;;;;4.83;1.23;;;15.90;99.90;;;;;;5050406;28;20399;-84
2022/07/18 12:24:56;;;;;;;4.80;1.50;;;15.90;99.90;;;;;;5052021;28;20384;-84
2022/07/18 12:27:34;;;;;;;5.30;1.40;;;15.90;99.90;;;;;;5051939;28;20394;-84
2022/07/18 12:30:11;;;;;;;4.38;1.20;;;16.00;99.90;;;;;;5051504;28;20438;-83
2022/07/18 12:32:56;;;;;;;4.25;1.30;;;16.20;99.90;;;;;;5050577;28;20388;-82
2022/07/18 12:35:28;;;;;;;3.33;1.20;;;16.30;99.90;;;;;;5050709;28;20395;-82
2022/07/18 12:38:08;;;;;;;3.97;1.30;;;16.20;99.90;;;;;;5051718;28;20468;-83
2022/07/18 12:40:58;;;;;;;5.07;1.40;;;16.30;99.90;;;;;;5051667;28;20392;-83
2022/07/18 12:43:27;;;;;;;4.17;1.30;;;16.30;99.90;;;;;;5051641;28;20805;-83
2022/07/18 12:45:56;;;;;;;3.75;1.30;;;16.30;99.90;;;;;;5051589;28;20437;-84
2022/07/18 12:48:27;;;;;;;3.47;1.20;;;16.40;99.90;;;;;;5051560;28;20842;-83
2022/07/18 12:51:09;;;;;;;2.83;1.33;;;16.60;99.90;;;;;;5050429;28;20439;-83
2022/07/18 12:53:42;;;;;;;6.53;1.60;;;16.60;99.90;;;;;;5060306;28;20389;-84
2022/07/18 12:56:10;;;;;;;5.10;1.50;;;16.60;99.90;;;;;;5070140;28;20975;-83
2022/07/18 12:58:37;;;;;;;3.70;1.10;;;16.60;99.90;;;;;;5070219;28;20812;-83
2022/07/18 13:01:06;;;;;;;3.50;1.30;;;16.60;99.90;;;;;;5070147;28;20505;-84
2022/07/18 13:03:35;;;;;;;3.90;1.40;;;16.60;99.90;;;;;;5071317;28;20393;-81